This is the latest recevied weather packets stored in our database for station/object K7JGC-9. If no packets are shown the sender has not sent any weather packets the latest 10 day(s).
| Time | Temp. | Humidity | Pressure | Rain* | Wind** | Luminosity | Snow |
|---|---|---|---|---|---|---|---|
| 1777695259 | 16.11° C | 69% | 1016.6 hPa | 0 mm | - | 0 W/m² | - |
| 1777693459 | 17.22° C | 67% | 1016 hPa | 0 mm | - | 0 W/m² | - |
| 1777691655 | 18.33° C | 65% | 1015.4 hPa | 0 mm | - | 1 W/m² | - |
| 1777689852 | 20° C | 62% | 1015.1 hPa | 0 mm | - | 8 W/m² | - |
| 1777688052 | 21.11° C | 58% | 1014.6 hPa | 0 mm | - | 18 W/m² | - |
| 1777686252 | 22.22° C | 53% | 1014.4 hPa | 0 mm | - | 33 W/m² | - |
| 1777684450 | 22.78° C | 53% | 1014.4 hPa | 0 mm | - | 53 W/m² | - |
| 1777682649 | 23.33° C | 53% | 1014.5 hPa | 0 mm | - | 58 W/m² | - |
| 1777680844 | 23.89° C | 49% | 1014.3 hPa | 0 mm | - | 161 W/m² | - |
| 1777679040 | 23.89° C | 48% | 1014.4 hPa | 0 mm | - | 58 W/m² | - |
| 1777677235 | 23.89° C | 48% | 1014.7 hPa | 0 mm | - | 63 W/m² | - |
| 1777675432 | 23.33° C | 51% | 1015 hPa | 0 mm | - | 73 W/m² | - |
| 1777673629 | 23.33° C | 48% | 1015.5 hPa | 0 mm | - | 85 W/m² | - |
| 1777671825 | 23.33° C | 48% | 1015.8 hPa | 0 mm | - | 92 W/m² | - |
| 1777670023 | 23.33° C | 48% | 1016.2 hPa | 0 mm | - | 95 W/m² | - |
| 1777668221 | 22.78° C | 52% | 1016.4 hPa | 0 mm | - | 96 W/m² | - |
| 1777666419 | 22.22° C | 53% | 1016.6 hPa | 0 mm | - | 89 W/m² | - |
| 1777664617 | 20.56° C | 55% | 1016.8 hPa | 0 mm | - | 128 W/m² | - |
| 1777662812 | 19.44° C | 63% | 1017.2 hPa | 0 mm | - | 110 W/m² | - |
| 1777661011 | 19.44° C | 59% | 1017.4 hPa | 0 mm | - | 182 W/m² | - |
| 1777659209 | 19.44° C | 56% | 1017.5 hPa | 0 mm | - | 95 W/m² | - |
| 1777657407 | 18.33° C | 63% | 1017.4 hPa | 0 mm | - | 422 W/m² | - |
| 1777655603 | 16.67° C | 69% | 1017.7 hPa | 0 mm | - | 125 W/m² | - |
| 1777653799 | 15.56° C | 70% | 1017.6 hPa | 0 mm | - | 100 W/m² | - |
| 1777651996 | 15° C | 73% | 1018 hPa | 0 mm | - | 101 W/m² | - |
* Rain latest hour (hover to see other rain measurements)
** Current wind speed in m/s (hover to see current wind gust speed)